Loging...

KPDC, Korea Polar Data Center

Korea Polar Data Center Scientific observations and results from Antarctica shall
be exchanged and made freely available

Keyword Search

Advanced Search

Search 242 data out of 28,409

Metadata Search Results1
No. Title Reg. Date
1 [KOPRI-KPDC-00001449]GPS data on ARAON DaDis for Antarctic cruise, 2019/2020 2020-06-25
2 [KOPRI-KPDC-00001448]Thermosalinograph data on ARAON DaDis for Antarctic cruise, 2019/2020 2020-06-25
3 [KOPRI-KPDC-00001447]Fluorometer data on ARAON DaDis for Antarctic cruise, 2019/2020 2020-06-25
4 [KOPRI-KPDC-00001446]Gyro compass data on ARAON DaDis for Antarctic cruise, 2019/2020 2020-06-25
5 [KOPRI-KPDC-00001445]Motion sensor data on ARAON DaDis for Antarctic cruise, 2019/2020 2020-06-25
6 [KOPRI-KPDC-00001444]Wind data on ARAON DaDis for Antarctic cruise, 2019/2020 2020-06-25
7 [KOPRI-KPDC-00001443]Weather data on ARAON DaDis for Antarctic cruise, 2019/2020 2020-06-25
8 [KOPRI-KPDC-00001434]LADCP data observed in the Terra Nova Bay, Ross Sea, in March, 2020 (ANA10C) 2020-04-13
9 [KOPRI-KPDC-00001435]CTD profiles observed in the Terra Nova Bay, Ross Sea, in March, 2020 (ANA10C) 2020-04-13
10 [KOPRI-KPDC-00001431]CTD profiles observed in front of the Thwaites Glacier, Amundsen Sea, in February 2020 (ANA10B) 2020-04-06
11 [KOPRI-KPDC-00001432]LADCP data observed in front of the Thwaites Glacier, Amundsen Sea, in February, 2020 (ANA10B) 2020-04-06
12 [KOPRI-KPDC-00001241]Phytoplankton abundance in the Amundsen Sea in 2017/2018 2020-03-03
13 [KOPRI-KPDC-00001075]Antarctic Marine Benthic Invertebrate Specimens in Bransfield Strait, Maxwell Bay and Marian Cove Collected from ARAON (April, 2018) 2020-02-17
14 [KOPRI-KPDC-00000446]Antarctic Marine Benthic Invertebrate Specimens in Marian Cove (2009-2014) 2020-02-17
15 [KOPRI-KPDC-00000601]Depth profiles of temperature and salinity in the Ross Sea, Antarctica, in December 2015 2020-01-28
16 [KOPRI-KPDC-00000749]NIWA oceanographic mooring data in the Drygalski Ice Tongue North 2016 2020-01-28
17 [KOPRI-KPDC-00000906]NIWA oceanographic deep mooring data in the Drygalski Ice Tongue 2017 2020-01-28
18 [KOPRI-KPDC-00000898]NIWA oceanographic mooring data in the Drygalski Ice Tongue North 2017 2020-01-28
19 [KOPRI-KPDC-00001060]NIWA oceanographic mooring data in the Drygalski Ice Tongue North 2015 2020-01-28
20 [KOPRI-KPDC-00000896]LADCP data observed in the Terra Nova Bay, Ross Sea, in March, 2018 (ANA08C) 2020-01-28
21 [KOPRI-KPDC-00001065]LADCP data observed in the Terra Nova Bay, Ross Sea, in January, 2017 (ANA07C) 2020-01-28
22 [KOPRI-KPDC-00001061]LADCP data observed in the Terra Nova Bay, Ross Sea, in December, 2015 (ANA06A) 2020-01-28
23 [KOPRI-KPDC-00001064]LADCP data observed in the Terra Nova Bay, Ross Sea, in December, 2014 (ANA05A) 2020-01-28
24 [KOPRI-KPDC-00000895]CTD profiles observed in the Terra Nova Bay, Ross Sea, in March, 2018 (ANA08C) 2020-01-28
25 [KOPRI-KPDC-00001063]CTD profiles observed in the Terra Nova Bay, Ross Sea, in January, 2017 (ANA07C) 2020-01-28
26 [KOPRI-KPDC-00001062]CTD profiles observed in the Terra Nova Bay, Ross Sea, in December, 2014 (ANA05A) 2020-01-28
27 [KOPRI-KPDC-00001224]ANA09B Seismic Sparker Survey Lines 2019-12-13
28 [KOPRI-KPDC-00001419]Wind data on ARAON DaDis for Antarctic cruise, 2018/2019 2019-12-11
29 [KOPRI-KPDC-00001405]Wind data on ARAON DaDis for Antarctic cruise, 2018/2019 2019-11-12
30 [KOPRI-KPDC-00001404]Wind data on ARAON DaDis for Antarctic cruise, 2017/2018 2019-11-12
31 [KOPRI-KPDC-00001403]Wind data on ARAON DaDis for Antarctic cruise, 2016/2017 2019-11-12
32 [KOPRI-KPDC-00001402]Wind data on ARAON DaDis for Antarctic cruise, 2015/2016 2019-11-12
33 [KOPRI-KPDC-00001401]Wind data on ARAON DaDis for Antarctic cruise, 2014/2015 2019-11-12
34 [KOPRI-KPDC-00001400]Wind data on ARAON DaDis for Antarctic cruise, 2013/2014 2019-11-12
35 [KOPRI-KPDC-00001399]Wind data on ARAON DaDis for Antarctic cruise, 2012/2013 2019-11-12
36 [KOPRI-KPDC-00001398]Wind data on ARAON DaDis for Antarctic cruise, 2011/2012 2019-11-12
37 [KOPRI-KPDC-00001397]Wind data on ARAON DaDis for Antarctic cruise, 2010/2011 2019-11-12
38 [KOPRI-KPDC-00001382]Weather data on ARAON DaDis for Antarctic cruise, 2018/2019 2019-11-12
39 [KOPRI-KPDC-00001381]Weather data on ARAON DaDis for Antarctic cruise, 2017/2018 2019-11-12
40 [KOPRI-KPDC-00001380]Weather data on ARAON DaDis for Antarctic cruise, 2016/2017 2019-11-12
41 [KOPRI-KPDC-00001379]Thermosalinograph data on ARAON DaDis for Antarctic cruise, 2018/2019 2019-11-12
42 [KOPRI-KPDC-00001378]Thermosalinograph data on ARAON DaDis for Antarctic cruise, 2017/2018 2019-11-12
43 [KOPRI-KPDC-00001377]Thermosalinograph data on ARAON DaDis for Antarctic cruise, 2016/2017 2019-11-12
44 [KOPRI-KPDC-00001376]Thermosalinograph data on ARAON DaDis for Antarctic cruise, 2015/2016 2019-11-12
45 [KOPRI-KPDC-00001375]Thermosalinograph data on ARAON DaDis for Antarctic cruise, 2014/2015 2019-11-12
46 [KOPRI-KPDC-00001374]Thermosalinograph data on ARAON DaDis for Antarctic cruise, 2013/2014 2019-11-12
47 [KOPRI-KPDC-00001373]Thermosalinograph data on ARAON DaDis for Antarctic cruise, 2012/2013 2019-11-12
48 [KOPRI-KPDC-00001372]Thermosalinograph data on ARAON DaDis for Antarctic cruise, 2011/2012 2019-11-12
49 [KOPRI-KPDC-00001371]Thermosalinograph data on ARAON DaDis for Antarctic cruise, 2010/2011 2019-11-12
50 [KOPRI-KPDC-00001360]Motion sensor data on ARAON DaDis for Antarctic cruise, 2018/2019 2019-11-12
51 [KOPRI-KPDC-00001359]Motion sensor data on ARAON DaDis for Antarctic cruise, 2017/2018 2019-11-12
52 [KOPRI-KPDC-00001358]Motion sensor data on ARAON DaDis for Antarctic cruise, 2016/2017 2019-11-12
53 [KOPRI-KPDC-00001357]Motion sensor data on ARAON DaDis for Antarctic cruise, 2015/2016 2019-11-12
54 [KOPRI-KPDC-00001356]Motion sensor data on ARAON DaDis for Antarctic cruise, 2014/2015 2019-11-12
55 [KOPRI-KPDC-00001355]Motion sensor data on ARAON DaDis for Antarctic cruise, 2013/2014 2019-11-12
56 [KOPRI-KPDC-00001354]Motion sensor data on ARAON DaDis for Antarctic cruise, 2012/2013 2019-11-12
57 [KOPRI-KPDC-00001353]Motion sensor data on ARAON DaDis for Antarctic cruise, 2011/2012 2019-11-12
58 [KOPRI-KPDC-00001352]Motion sensor data on ARAON DaDis for Antarctic cruise, 2010/2011 2019-11-12
59 [KOPRI-KPDC-00001336]Gyro compass data on ARAON DaDis for Antarctic cruise, 2014/2015 2019-11-08
60 [KOPRI-KPDC-00001340]Gyro compass data on ARAON DaDis for Antarctic cruise, 2018/2019 2019-11-08
61 [KOPRI-KPDC-00001339]Gyro compass data on ARAON DaDis for Antarctic cruise, 2017/2018 2019-11-08
62 [KOPRI-KPDC-00001338]Gyro compass data on ARAON DaDis for Antarctic cruise, 2016/2017 2019-11-08
63 [KOPRI-KPDC-00001337]Gyro compass data on ARAON DaDis for Antarctic cruise, 2015/2016 2019-11-08
64 [KOPRI-KPDC-00001335]Gyro compass data on ARAON DaDis for Antarctic cruise, 2013/2014 2019-11-08
65 [KOPRI-KPDC-00001334]Gyro compass data on ARAON DaDis for Antarctic cruise, 2012/2013 2019-11-08
66 [KOPRI-KPDC-00001333]Gyro compass data on ARAON DaDis for Antarctic cruise, 2011/2012 2019-11-08
67 [KOPRI-KPDC-00001332]Gyro compass data on ARAON DaDis for Antarctic cruise, 2010/2011 2019-11-08
68 [KOPRI-KPDC-00001321]Fluorometer data on ARAON DaDis for Antarctic cruise, 2018/2019 2019-11-08
69 [KOPRI-KPDC-00001320]Fluorometer data on ARAON DaDis for Antarctic cruise, 2017/2018 2019-11-08
70 [KOPRI-KPDC-00001319]Fluorometer data on ARAON DaDis for Antarctic cruise, 2016/2017 2019-11-08
71 [KOPRI-KPDC-00001318]Fluorometer data on ARAON DaDis for Antarctic cruise, 2015/2016 2019-11-08
72 [KOPRI-KPDC-00001317]Fluorometer data on ARAON DaDis for Antarctic cruise, 2014/2015 2019-11-08
73 [KOPRI-KPDC-00001316]Fluorometer data on ARAON DaDis for Antarctic cruise, 2013/2014 2019-11-08
74 [KOPRI-KPDC-00001315]Fluorometer data on ARAON DaDis for Antarctic cruise, 2012/2013 2019-11-08
75 [KOPRI-KPDC-00001314]Fluorometer data on ARAON DaDis for Antarctic cruise, 2011/2012 2019-11-08
76 [KOPRI-KPDC-00001313]Fluorometer data on ARAON DaDis for Antarctic cruise, 2010/2011 2019-11-08
77 [KOPRI-KPDC-00001302]GPS data on ARAON DaDis for Antarctic cruise, 2018/2019 2019-11-08
78 [KOPRI-KPDC-00001301]GPS data on ARAON DaDis for Antarctic cruise, 2017/2018 2019-11-08
79 [KOPRI-KPDC-00001300]GPS data on ARAON DaDis for Antarctic cruise, 2016/2017 2019-11-08
80 [KOPRI-KPDC-00001299]GPS data on ARAON DaDis for Antarctic cruise, 2015/2016 2019-11-08
81 [KOPRI-KPDC-00001298]GPS data on ARAON DaDis for Antarctic cruise, 2014/2015 2019-11-08
82 [KOPRI-KPDC-00001297]GPS data on ARAON DaDis for Antarctic cruise, 2013/2014 2019-11-08
83 [KOPRI-KPDC-00001296]GPS data on ARAON DaDis for Antarctic cruise, 2012/2013 2019-11-08
84 [KOPRI-KPDC-00001295]GPS data on ARAON DaDis for Antarctic cruise, 2011/2012 2019-11-08
85 [KOPRI-KPDC-00001294]GPS data on ARAON DaDis for Antarctic cruise, 2010/2011 2019-11-08
86 [KOPRI-KPDC-00001287]Seawater sampling from Marian Cove (SW1) 2019-10-21
87 [KOPRI-KPDC-00001284]Seawater sampling from Marian Cove (SW2) 2019-10-21
88 [KOPRI-KPDC-00001258]Metabolite Library (2019) 2019-10-15
89 [KOPRI-KPDC-00001257]Extract Library (2019) 2019-10-15
90 [KOPRI-KPDC-00001255]Oxygen isotope data collected in the Amundsen Sea during the austral summer of 2018 2019-10-10
91 [KOPRI-KPDC-00001176]Small phytoplankton contribution to the total primary production during three cruises (ANA02C, ANA04B, ANA06B) in the Amundsen Sea, Antarctica 2019-10-07
92 [KOPRI-KPDC-00001204]OBS(Ocean Bottom Seismometer) Data of Ross Sea in 2018-2019 2019-09-30
93 [KOPRI-KPDC-00001196]mooring data in the Marian Cove from 2018 to 2019 2019-09-23
94 [KOPRI-KPDC-00001195]CTD data in the Marian Cove, Antarcica from 2011 to 2019 2019-09-23
95 [KOPRI-KPDC-00001194]CTD(Pier) data in the Marian Cove from 2011 to 2019 2019-09-23
96 [KOPRI-KPDC-00001172]Ocean Bottom Seismometer Data in Ross Sea, Antarctica in 2015 2019-07-08
97 [KOPRI-KPDC-00001171]Hydroacoustic data in Terra Nova Bay, 2018 2019-07-08
98 [KOPRI-KPDC-00001168]NIWA oceanographic deep mooring data in the Drygalski Basin (deep trough) 2018 2019-06-28
99 [KOPRI-KPDC-00001167]NIWA oceanographic deep mooring data in the Drygalski Ice Tongue 2018 2019-06-28
100 [KOPRI-KPDC-00001166]NIWA oceanographic mooring data in the Drygalski Ice Tongue North 2018 2019-06-28